sensor_id;sensor_type;location;lat;lon;timestamp;temperature;humidity
75738;DHT22;64356;45.638;13.764;2023-05-10T00:02:06;22.30;48.60
75738;DHT22;64356;45.638;13.764;2023-05-10T00:04:32;22.40;48.60
75738;DHT22;64356;45.638;13.764;2023-05-10T00:06:58;22.30;48.50
75738;DHT22;64356;45.638;13.764;2023-05-10T00:09:23;22.40;48.60
75738;DHT22;64356;45.638;13.764;2023-05-10T00:11:49;22.30;48.50
75738;DHT22;64356;45.638;13.764;2023-05-10T00:14:15;22.30;48.50
75738;DHT22;64356;45.638;13.764;2023-05-10T00:16:41;22.30;48.50
75738;DHT22;64356;45.638;13.764;2023-05-10T00:19:06;22.30;48.60
75738;DHT22;64356;45.638;13.764;2023-05-10T00:21:32;22.30;48.60
75738;DHT22;64356;45.638;13.764;2023-05-10T00:23:59;22.40;48.60
75738;DHT22;64356;45.638;13.764;2023-05-10T00:26:25;22.30;48.60
75738;DHT22;64356;45.638;13.764;2023-05-10T00:28:51;22.30;48.60
75738;DHT22;64356;45.638;13.764;2023-05-10T00:31:16;22.30;48.60
75738;DHT22;64356;45.638;13.764;2023-05-10T00:33:42;22.40;48.60
75738;DHT22;64356;45.638;13.764;2023-05-10T00:36:08;22.30;48.60
75738;DHT22;64356;45.638;13.764;2023-05-10T00:38:34;22.30;48.60
75738;DHT22;64356;45.638;13.764;2023-05-10T00:40:59;22.30;48.60
75738;DHT22;64356;45.638;13.764;2023-05-10T00:43:25;22.30;48.50
75738;DHT22;64356;45.638;13.764;2023-05-10T00:45:51;22.30;48.60
75738;DHT22;64356;45.638;13.764;2023-05-10T00:48:17;22.30;48.60
75738;DHT22;64356;45.638;13.764;2023-05-10T00:50:43;22.30;48.60
75738;DHT22;64356;45.638;13.764;2023-05-10T00:53:09;22.30;48.70
75738;DHT22;64356;45.638;13.764;2023-05-10T00:55:35;22.30;48.60
75738;DHT22;64356;45.638;13.764;2023-05-10T00:58:01;22.30;48.60
75738;DHT22;64356;45.638;13.764;2023-05-10T01:00:27;22.30;48.60
75738;DHT22;64356;45.638;13.764;2023-05-10T01:02:53;22.30;48.60
75738;DHT22;64356;45.638;13.764;2023-05-10T01:05:19;22.30;48.50
75738;DHT22;64356;45.638;13.764;2023-05-10T01:07:45;22.30;48.60
75738;DHT22;64356;45.638;13.764;2023-05-10T01:10:11;22.30;48.60
75738;DHT22;64356;45.638;13.764;2023-05-10T01:12:39;22.30;48.60
75738;DHT22;64356;45.638;13.764;2023-05-10T01:15:07;22.30;48.70
75738;DHT22;64356;45.638;13.764;2023-05-10T01:17:35;22.30;48.80
75738;DHT22;64356;45.638;13.764;2023-05-10T01:20:03;22.30;48.60
75738;DHT22;64356;45.638;13.764;2023-05-10T01:32:45;22.30;48.30
75738;DHT22;64356;45.638;13.764;2023-05-10T01:35:21;22.30;48.30
75738;DHT22;64356;45.638;13.764;2023-05-10T01:43:24;22.30;48.90
75738;DHT22;64356;45.638;13.764;2023-05-10T01:48:23;22.30;48.40
75738;DHT22;64356;45.638;13.764;2023-05-10T01:50:53;22.30;48.50
75738;DHT22;64356;45.638;13.764;2023-05-10T01:53:21;22.30;48.50
75738;DHT22;64356;45.638;13.764;2023-05-10T01:55:50;22.30;48.60
75738;DHT22;64356;45.638;13.764;2023-05-10T01:58:27;22.30;48.60
75738;DHT22;64356;45.638;13.764;2023-05-10T02:00:53;22.30;48.60
75738;DHT22;64356;45.638;13.764;2023-05-10T02:03:24;22.30;48.70
75738;DHT22;64356;45.638;13.764;2023-05-10T02:05:52;22.30;48.70
75738;DHT22;64356;45.638;13.764;2023-05-10T02:08:19;22.30;48.70
75738;DHT22;64356;45.638;13.764;2023-05-10T02:10:46;22.30;48.70
75738;DHT22;64356;45.638;13.764;2023-05-10T02:13:14;22.20;48.60
75738;DHT22;64356;45.638;13.764;2023-05-10T02:15:41;22.30;48.70
75738;DHT22;64356;45.638;13.764;2023-05-10T02:18:09;22.30;48.80
75738;DHT22;64356;45.638;13.764;2023-05-10T02:20:36;22.30;48.70
75738;DHT22;64356;45.638;13.764;2023-05-10T02:23:03;22.30;48.80
75738;DHT22;64356;45.638;13.764;2023-05-10T02:25:31;22.30;48.80
75738;DHT22;64356;45.638;13.764;2023-05-10T02:28:00;22.30;48.80
75738;DHT22;64356;45.638;13.764;2023-05-10T02:30:27;22.30;48.80
75738;DHT22;64356;45.638;13.764;2023-05-10T02:32:54;22.20;48.70
75738;DHT22;64356;45.638;13.764;2023-05-10T02:35:21;22.30;48.70
75738;DHT22;64356;45.638;13.764;2023-05-10T02:37:47;22.30;48.70
75738;DHT22;64356;45.638;13.764;2023-05-10T02:40:15;22.30;48.80
75738;DHT22;64356;45.638;13.764;2023-05-10T02:42:43;22.30;48.90
75738;DHT22;64356;45.638;13.764;2023-05-10T02:45:13;22.30;49.50
75738;DHT22;64356;45.638;13.764;2023-05-10T02:47:40;22.30;48.90
75738;DHT22;64356;45.638;13.764;2023-05-10T02:50:07;22.20;49.00
75738;DHT22;64356;45.638;13.764;2023-05-10T02:52:49;22.20;48.90
75738;DHT22;64356;45.638;13.764;2023-05-10T02:55:20;22.30;48.90
75738;DHT22;64356;45.638;13.764;2023-05-10T02:57:52;22.30;49.00
75738;DHT22;64356;45.638;13.764;2023-05-10T03:00:20;22.30;49.00
75738;DHT22;64356;45.638;13.764;2023-05-10T03:02:46;22.30;49.10
75738;DHT22;64356;45.638;13.764;2023-05-10T03:05:11;22.30;49.20
75738;DHT22;64356;45.638;13.764;2023-05-10T03:07:37;22.30;49.20
75738;DHT22;64356;45.638;13.764;2023-05-10T03:10:03;22.30;49.10
75738;DHT22;64356;45.638;13.764;2023-05-10T03:12:57;22.20;49.10
75738;DHT22;64356;45.638;13.764;2023-05-10T03:15:32;22.30;49.10
75738;DHT22;64356;45.638;13.764;2023-05-10T03:18:15;22.30;49.20
75738;DHT22;64356;45.638;13.764;2023-05-10T03:20:44;22.20;49.10
75738;DHT22;64356;45.638;13.764;2023-05-10T03:26:00;22.20;49.10
75738;DHT22;64356;45.638;13.764;2023-05-10T03:28:27;22.30;49.20
75738;DHT22;64356;45.638;13.764;2023-05-10T03:30:53;22.20;49.20
75738;DHT22;64356;45.638;13.764;2023-05-10T03:33:20;22.30;49.10
75738;DHT22;64356;45.638;13.764;2023-05-10T03:35:46;22.20;49.10
75738;DHT22;64356;45.638;13.764;2023-05-10T03:38:15;22.30;49.20
75738;DHT22;64356;45.638;13.764;2023-05-10T03:40:40;22.30;49.20
75738;DHT22;64356;45.638;13.764;2023-05-10T03:43:06;22.30;49.30
75738;DHT22;64356;45.638;13.764;2023-05-10T03:45:32;22.30;49.30
75738;DHT22;64356;45.638;13.764;2023-05-10T03:47:58;22.30;49.20
75738;DHT22;64356;45.638;13.764;2023-05-10T03:50:24;22.30;49.30
75738;DHT22;64356;45.638;13.764;2023-05-10T03:52:50;22.20;49.10
75738;DHT22;64356;45.638;13.764;2023-05-10T03:55:16;22.30;49.20
75738;DHT22;64356;45.638;13.764;2023-05-10T03:57:42;22.20;49.20
75738;DHT22;64356;45.638;13.764;2023-05-10T04:00:08;22.20;49.10
75738;DHT22;64356;45.638;13.764;2023-05-10T04:02:34;22.20;49.10
75738;DHT22;64356;45.638;13.764;2023-05-10T04:04:59;22.20;49.20
75738;DHT22;64356;45.638;13.764;2023-05-10T04:07:25;22.20;49.20
75738;DHT22;64356;45.638;13.764;2023-05-10T04:09:51;22.20;49.10
75738;DHT22;64356;45.638;13.764;2023-05-10T04:12:17;22.20;49.30
75738;DHT22;64356;45.638;13.764;2023-05-10T04:14:43;22.20;49.20
75738;DHT22;64356;45.638;13.764;2023-05-10T04:17:09;22.20;49.30
75738;DHT22;64356;45.638;13.764;2023-05-10T04:19:35;22.20;49.30
75738;DHT22;64356;45.638;13.764;2023-05-10T04:22:02;22.20;49.30
75738;DHT22;64356;45.638;13.764;2023-05-10T04:24:28;22.30;49.30
75738;DHT22;64356;45.638;13.764;2023-05-10T04:26:54;22.20;49.40
75738;DHT22;64356;45.638;13.764;2023-05-10T04:29:20;22.20;49.40
75738;DHT22;64356;45.638;13.764;2023-05-10T04:31:46;22.30;49.40
75738;DHT22;64356;45.638;13.764;2023-05-10T04:34:12;22.20;49.50
75738;DHT22;64356;45.638;13.764;2023-05-10T04:36:37;22.20;49.40
75738;DHT22;64356;45.638;13.764;2023-05-10T04:39:04;22.20;49.50
75738;DHT22;64356;45.638;13.764;2023-05-10T04:41:29;22.20;49.50
75738;DHT22;64356;45.638;13.764;2023-05-10T04:43:55;22.20;49.50
75738;DHT22;64356;45.638;13.764;2023-05-10T04:46:21;22.20;49.40
75738;DHT22;64356;45.638;13.764;2023-05-10T04:48:47;22.20;49.40
75738;DHT22;64356;45.638;13.764;2023-05-10T04:51:12;22.20;49.30
75738;DHT22;64356;45.638;13.764;2023-05-10T04:53:38;22.20;49.30
75738;DHT22;64356;45.638;13.764;2023-05-10T04:56:04;22.20;49.40
75738;DHT22;64356;45.638;13.764;2023-05-10T04:58:30;22.20;49.50
75738;DHT22;64356;45.638;13.764;2023-05-10T05:00:56;22.20;49.40
75738;DHT22;64356;45.638;13.764;2023-05-10T05:03:22;22.20;49.40
75738;DHT22;64356;45.638;13.764;2023-05-10T05:05:49;22.20;49.40
75738;DHT22;64356;45.638;13.764;2023-05-10T05:08:14;22.20;49.40
75738;DHT22;64356;45.638;13.764;2023-05-10T05:10:40;22.20;49.40
75738;DHT22;64356;45.638;13.764;2023-05-10T05:13:06;22.20;49.40
75738;DHT22;64356;45.638;13.764;2023-05-10T05:15:31;22.20;49.60
75738;DHT22;64356;45.638;13.764;2023-05-10T05:17:57;22.20;49.40
75738;DHT22;64356;45.638;13.764;2023-05-10T05:20:23;22.20;49.40
75738;DHT22;64356;45.638;13.764;2023-05-10T05:22:48;22.20;49.50
75738;DHT22;64356;45.638;13.764;2023-05-10T05:25:15;22.20;49.40
75738;DHT22;64356;45.638;13.764;2023-05-10T05:27:41;22.20;49.80
75738;DHT22;64356;45.638;13.764;2023-05-10T05:30:07;22.20;49.70
75738;DHT22;64356;45.638;13.764;2023-05-10T05:32:33;22.20;49.70
75738;DHT22;64356;45.638;13.764;2023-05-10T05:34:59;22.20;49.70
75738;DHT22;64356;45.638;13.764;2023-05-10T05:37:24;22.20;49.90
75738;DHT22;64356;45.638;13.764;2023-05-10T05:39:50;22.30;50.20
75738;DHT22;64356;45.638;13.764;2023-05-10T05:42:16;22.30;49.80
75738;DHT22;64356;45.638;13.764;2023-05-10T05:44:44;22.30;49.70
75738;DHT22;64356;45.638;13.764;2023-05-10T05:47:10;22.30;49.60
75738;DHT22;64356;45.638;13.764;2023-05-10T05:49:36;22.30;49.60
75738;DHT22;64356;45.638;13.764;2023-05-10T05:52:02;22.30;49.70
75738;DHT22;64356;45.638;13.764;2023-05-10T05:54:29;22.40;49.90
75738;DHT22;64356;45.638;13.764;2023-05-10T05:56:56;22.40;49.70
75738;DHT22;64356;45.638;13.764;2023-05-10T05:59:22;22.40;49.20
75738;DHT22;64356;45.638;13.764;2023-05-10T06:01:48;22.30;48.70
75738;DHT22;64356;45.638;13.764;2023-05-10T06:04:14;22.00;48.10
75738;DHT22;64356;45.638;13.764;2023-05-10T06:06:40;21.80;48.30
75738;DHT22;64356;45.638;13.764;2023-05-10T06:09:05;21.60;48.80
75738;DHT22;64356;45.638;13.764;2023-05-10T06:11:31;21.60;49.50
75738;DHT22;64356;45.638;13.764;2023-05-10T06:14:01;21.50;49.60
75738;DHT22;64356;45.638;13.764;2023-05-10T06:16:27;21.50;49.80
75738;DHT22;64356;45.638;13.764;2023-05-10T06:18:53;21.60;49.90
75738;DHT22;64356;45.638;13.764;2023-05-10T06:21:19;21.70;50.20
75738;DHT22;64356;45.638;13.764;2023-05-10T06:23:44;21.80;50.10
75738;DHT22;64356;45.638;13.764;2023-05-10T06:26:10;21.90;50.50
75738;DHT22;64356;45.638;13.764;2023-05-10T06:28:36;22.00;50.50
75738;DHT22;64356;45.638;13.764;2023-05-10T06:31:04;22.10;50.40
75738;DHT22;64356;45.638;13.764;2023-05-10T06:33:30;22.10;50.60
75738;DHT22;64356;45.638;13.764;2023-05-10T06:35:56;22.20;50.60
75738;DHT22;64356;45.638;13.764;2023-05-10T06:38:22;22.30;50.60
75738;DHT22;64356;45.638;13.764;2023-05-10T06:40:48;22.30;50.90
75738;DHT22;64356;45.638;13.764;2023-05-10T06:43:14;22.40;50.70
75738;DHT22;64356;45.638;13.764;2023-05-10T06:45:39;22.40;50.70
75738;DHT22;64356;45.638;13.764;2023-05-10T06:48:06;22.40;50.70
75738;DHT22;64356;45.638;13.764;2023-05-10T06:50:32;22.40;50.80
75738;DHT22;64356;45.638;13.764;2023-05-10T06:52:59;22.50;50.80
75738;DHT22;64356;45.638;13.764;2023-05-10T06:55:25;22.50;51.00
75738;DHT22;64356;45.638;13.764;2023-05-10T06:57:50;22.50;51.00
75738;DHT22;64356;45.638;13.764;2023-05-10T07:00:17;22.50;51.10
75738;DHT22;64356;45.638;13.764;2023-05-10T07:02:43;22.60;51.20
75738;DHT22;64356;45.638;13.764;2023-05-10T07:05:09;22.60;51.30
75738;DHT22;64356;45.638;13.764;2023-05-10T07:07:34;22.60;51.50
75738;DHT22;64356;45.638;13.764;2023-05-10T07:10:00;22.60;51.60
75738;DHT22;64356;45.638;13.764;2023-05-10T07:12:26;22.60;51.70
75738;DHT22;64356;45.638;13.764;2023-05-10T07:14:52;22.70;52.00
75738;DHT22;64356;45.638;13.764;2023-05-10T07:17:17;22.70;52.10
75738;DHT22;64356;45.638;13.764;2023-05-10T07:19:43;22.70;51.90
75738;DHT22;64356;45.638;13.764;2023-05-10T07:22:09;22.70;52.30
75738;DHT22;64356;45.638;13.764;2023-05-10T07:24:35;22.70;51.80
75738;DHT22;64356;45.638;13.764;2023-05-10T07:27:01;22.70;52.10
75738;DHT22;64356;45.638;13.764;2023-05-10T07:29:26;22.70;52.10
75738;DHT22;64356;45.638;13.764;2023-05-10T07:31:52;22.70;52.50
75738;DHT22;64356;45.638;13.764;2023-05-10T07:34:18;22.70;52.40
75738;DHT22;64356;45.638;13.764;2023-05-10T07:36:44;22.70;53.20
75738;DHT22;64356;45.638;13.764;2023-05-10T07:39:10;22.70;53.50
75738;DHT22;64356;45.638;13.764;2023-05-10T07:41:35;22.70;53.50
75738;DHT22;64356;45.638;13.764;2023-05-10T07:44:03;22.70;52.80
75738;DHT22;64356;45.638;13.764;2023-05-10T07:46:29;22.70;52.70
75738;DHT22;64356;45.638;13.764;2023-05-10T07:48:55;22.70;52.80
75738;DHT22;64356;45.638;13.764;2023-05-10T07:51:21;22.70;53.00
75738;DHT22;64356;45.638;13.764;2023-05-10T07:53:46;22.70;53.50
75738;DHT22;64356;45.638;13.764;2023-05-10T07:56:34;22.70;53.80
75738;DHT22;64356;45.638;13.764;2023-05-10T07:59:01;22.80;53.60
75738;DHT22;64356;45.638;13.764;2023-05-10T08:01:30;22.80;53.70
75738;DHT22;64356;45.638;13.764;2023-05-10T08:03:57;22.80;54.30
75738;DHT22;64356;45.638;13.764;2023-05-10T08:06:23;22.80;54.60
75738;DHT22;64356;45.638;13.764;2023-05-10T08:08:51;22.80;54.60
75738;DHT22;64356;45.638;13.764;2023-05-10T08:11:19;22.80;54.00
75738;DHT22;64356;45.638;13.764;2023-05-10T08:13:46;22.80;53.80
75738;DHT22;64356;45.638;13.764;2023-05-10T08:16:12;22.80;53.70
75738;DHT22;64356;45.638;13.764;2023-05-10T08:18:39;22.80;53.60
75738;DHT22;64356;45.638;13.764;2023-05-10T08:21:05;22.80;53.20
75738;DHT22;64356;45.638;13.764;2023-05-10T08:23:31;22.80;52.90
75738;DHT22;64356;45.638;13.764;2023-05-10T08:25:57;22.80;52.70
75738;DHT22;64356;45.638;13.764;2023-05-10T08:28:23;22.80;52.60
75738;DHT22;64356;45.638;13.764;2023-05-10T08:30:50;22.80;52.70
75738;DHT22;64356;45.638;13.764;2023-05-10T08:33:17;22.80;52.60
75738;DHT22;64356;45.638;13.764;2023-05-10T08:35:42;22.70;52.30
75738;DHT22;64356;45.638;13.764;2023-05-10T08:38:08;22.70;52.30
75738;DHT22;64356;45.638;13.764;2023-05-10T08:40:34;22.70;52.30
75738;DHT22;64356;45.638;13.764;2023-05-10T08:45:32;22.70;52.40
75738;DHT22;64356;45.638;13.764;2023-05-10T08:47:59;22.70;52.60
75738;DHT22;64356;45.638;13.764;2023-05-10T08:50:25;22.70;52.50
75738;DHT22;64356;45.638;13.764;2023-05-10T08:52:53;22.80;52.70
75738;DHT22;64356;45.638;13.764;2023-05-10T08:55:20;22.80;53.10
75738;DHT22;64356;45.638;13.764;2023-05-10T08:57:49;22.80;53.30
75738;DHT22;64356;45.638;13.764;2023-05-10T09:00:15;22.90;53.90
75738;DHT22;64356;45.638;13.764;2023-05-10T09:02:42;22.90;55.20
75738;DHT22;64356;45.638;13.764;2023-05-10T09:05:09;22.90;54.80
75738;DHT22;64356;45.638;13.764;2023-05-10T09:07:36;22.90;54.60
75738;DHT22;64356;45.638;13.764;2023-05-10T09:10:03;22.90;54.30
75738;DHT22;64356;45.638;13.764;2023-05-10T09:12:29;22.90;54.10
75738;DHT22;64356;45.638;13.764;2023-05-10T09:14:55;22.80;54.20
75738;DHT22;64356;45.638;13.764;2023-05-10T09:17:23;22.80;54.10
75738;DHT22;64356;45.638;13.764;2023-05-10T09:19:56;22.80;54.10
75738;DHT22;64356;45.638;13.764;2023-05-10T09:22:22;22.80;54.10
75738;DHT22;64356;45.638;13.764;2023-05-10T09:25:06;22.80;54.50
75738;DHT22;64356;45.638;13.764;2023-05-10T09:27:33;22.80;54.40
75738;DHT22;64356;45.638;13.764;2023-05-10T09:29:59;22.80;54.50
75738;DHT22;64356;45.638;13.764;2023-05-10T09:35:15;22.80;54.90
75738;DHT22;64356;45.638;13.764;2023-05-10T09:37:42;22.80;55.10
75738;DHT22;64356;45.638;13.764;2023-05-10T09:40:19;22.70;55.00
75738;DHT22;64356;45.638;13.764;2023-05-10T09:43:00;22.70;55.00
75738;DHT22;64356;45.638;13.764;2023-05-10T09:45:28;22.70;55.30
75738;DHT22;64356;45.638;13.764;2023-05-10T09:47:55;22.70;55.20
75738;DHT22;64356;45.638;13.764;2023-05-10T09:50:21;22.80;55.40
75738;DHT22;64356;45.638;13.764;2023-05-10T09:52:53;22.80;55.90
75738;DHT22;64356;45.638;13.764;2023-05-10T09:55:21;22.80;57.00
75738;DHT22;64356;45.638;13.764;2023-05-10T09:57:47;22.90;57.10
75738;DHT22;64356;45.638;13.764;2023-05-10T10:00:20;22.90;56.80
75738;DHT22;64356;45.638;13.764;2023-05-10T10:02:57;22.90;56.30
75738;DHT22;64356;45.638;13.764;2023-05-10T10:05:30;22.90;56.60
75738;DHT22;64356;45.638;13.764;2023-05-10T10:07:57;22.90;56.50
75738;DHT22;64356;45.638;13.764;2023-05-10T10:10:24;22.90;56.40
75738;DHT22;64356;45.638;13.764;2023-05-10T10:12:51;22.90;56.00
75738;DHT22;64356;45.638;13.764;2023-05-10T10:15:17;22.90;56.10
75738;DHT22;64356;45.638;13.764;2023-05-10T10:17:43;22.90;56.10
75738;DHT22;64356;45.638;13.764;2023-05-10T10:20:09;22.90;56.00
75738;DHT22;64356;45.638;13.764;2023-05-10T10:22:37;22.90;56.10
75738;DHT22;64356;45.638;13.764;2023-05-10T10:25:04;22.90;55.90
75738;DHT22;64356;45.638;13.764;2023-05-10T10:35:32;22.80;54.80
75738;DHT22;64356;45.638;13.764;2023-05-10T10:37:58;22.80;54.70
75738;DHT22;64356;45.638;13.764;2023-05-10T10:40:28;22.80;54.40
75738;DHT22;64356;45.638;13.764;2023-05-10T10:42:55;22.80;54.40
75738;DHT22;64356;45.638;13.764;2023-05-10T10:45:23;22.70;54.30
75738;DHT22;64356;45.638;13.764;2023-05-10T10:47:53;22.70;54.30
75738;DHT22;64356;45.638;13.764;2023-05-10T10:50:19;22.70;54.30
75738;DHT22;64356;45.638;13.764;2023-05-10T10:52:45;22.70;54.60
75738;DHT22;64356;45.638;13.764;2023-05-10T10:57:52;22.70;54.70
75738;DHT22;64356;45.638;13.764;2023-05-10T11:02:58;22.80;55.70
75738;DHT22;64356;45.638;13.764;2023-05-10T11:05:38;22.80;55.70
75738;DHT22;64356;45.638;13.764;2023-05-10T11:08:12;22.90;56.20
75738;DHT22;64356;45.638;13.764;2023-05-10T11:10:38;22.90;56.10
75738;DHT22;64356;45.638;13.764;2023-05-10T11:13:09;22.90;56.00
75738;DHT22;64356;45.638;13.764;2023-05-10T11:15:39;22.90;55.80
75738;DHT22;64356;45.638;13.764;2023-05-10T11:18:18;22.90;55.60
75738;DHT22;64356;45.638;13.764;2023-05-10T11:20:56;22.90;55.80
75738;DHT22;64356;45.638;13.764;2023-05-10T11:23:23;22.90;56.00
75738;DHT22;64356;45.638;13.764;2023-05-10T11:25:49;22.80;55.70
75738;DHT22;64356;45.638;13.764;2023-05-10T11:28:17;22.80;55.40
75738;DHT22;64356;45.638;13.764;2023-05-10T11:30:44;22.80;55.40
75738;DHT22;64356;45.638;13.764;2023-05-10T11:33:16;22.80;55.20
75738;DHT22;64356;45.638;13.764;2023-05-10T11:35:42;22.80;55.30
75738;DHT22;64356;45.638;13.764;2023-05-10T11:38:08;22.70;55.30
75738;DHT22;64356;45.638;13.764;2023-05-10T11:40:35;22.70;55.20
75738;DHT22;64356;45.638;13.764;2023-05-10T11:43:01;22.70;55.40
75738;DHT22;64356;45.638;13.764;2023-05-10T11:45:28;22.70;55.30
75738;DHT22;64356;45.638;13.764;2023-05-10T11:47:57;22.70;55.50
75738;DHT22;64356;45.638;13.764;2023-05-10T11:50:23;22.80;55.30
75738;DHT22;64356;45.638;13.764;2023-05-10T11:52:54;22.70;55.20
75738;DHT22;64356;45.638;13.764;2023-05-10T11:55:20;22.60;55.50
75738;DHT22;64356;45.638;13.764;2023-05-10T11:57:46;22.40;55.60
75738;DHT22;64356;45.638;13.764;2023-05-10T12:00:13;22.20;55.90
75738;DHT22;64356;45.638;13.764;2023-05-10T12:02:39;22.10;56.60
75738;DHT22;64356;45.638;13.764;2023-05-10T12:05:05;22.10;56.80
75738;DHT22;64356;45.638;13.764;2023-05-10T12:07:34;22.10;57.00
75738;DHT22;64356;45.638;13.764;2023-05-10T12:10:06;22.20;56.50
75738;DHT22;64356;45.638;13.764;2023-05-10T12:12:43;22.30;56.30
75738;DHT22;64356;45.638;13.764;2023-05-10T12:15:19;22.30;55.80
75738;DHT22;64356;45.638;13.764;2023-05-10T12:17:45;22.30;55.50
75738;DHT22;64356;45.638;13.764;2023-05-10T12:20:22;22.30;55.30
75738;DHT22;64356;45.638;13.764;2023-05-10T12:22:53;22.30;55.10
75738;DHT22;64356;45.638;13.764;2023-05-10T12:25:22;22.40;55.00
75738;DHT22;64356;45.638;13.764;2023-05-10T12:27:52;22.40;54.90
75738;DHT22;64356;45.638;13.764;2023-05-10T12:30:25;22.40;54.80
75738;DHT22;64356;45.638;13.764;2023-05-10T12:32:51;22.40;55.50
75738;DHT22;64356;45.638;13.764;2023-05-10T12:35:18;22.40;55.30
75738;DHT22;64356;45.638;13.764;2023-05-10T12:37:47;22.50;55.80
75738;DHT22;64356;45.638;13.764;2023-05-10T12:40:14;22.50;55.50
75738;DHT22;64356;45.638;13.764;2023-05-10T12:42:40;22.50;55.50
75738;DHT22;64356;45.638;13.764;2023-05-10T12:45:06;22.50;55.60
75738;DHT22;64356;45.638;13.764;2023-05-10T12:47:33;22.50;55.50
75738;DHT22;64356;45.638;13.764;2023-05-10T12:50:00;22.50;55.70
75738;DHT22;64356;45.638;13.764;2023-05-10T12:52:27;22.50;55.70
75738;DHT22;64356;45.638;13.764;2023-05-10T12:54:53;22.50;55.70
75738;DHT22;64356;45.638;13.764;2023-05-10T12:57:20;22.50;55.80
75738;DHT22;64356;45.638;13.764;2023-05-10T12:59:46;22.60;56.50
75738;DHT22;64356;45.638;13.764;2023-05-10T13:02:12;22.50;56.20
75738;DHT22;64356;45.638;13.764;2023-05-10T13:04:38;22.50;56.30
75738;DHT22;64356;45.638;13.764;2023-05-10T13:07:08;22.50;56.50
75738;DHT22;64356;45.638;13.764;2023-05-10T13:09:34;22.50;56.50
75738;DHT22;64356;45.638;13.764;2023-05-10T13:11:59;22.50;56.50
75738;DHT22;64356;45.638;13.764;2023-05-10T13:14:25;22.50;56.50
75738;DHT22;64356;45.638;13.764;2023-05-10T13:16:51;22.50;56.60
75738;DHT22;64356;45.638;13.764;2023-05-10T13:19:17;22.50;56.90
75738;DHT22;64356;45.638;13.764;2023-05-10T13:21:43;22.60;56.60
75738;DHT22;64356;45.638;13.764;2023-05-10T13:24:10;22.50;56.80
75738;DHT22;64356;45.638;13.764;2023-05-10T13:26:39;22.50;56.50
75738;DHT22;64356;45.638;13.764;2023-05-10T13:29:05;22.50;56.20
75738;DHT22;64356;45.638;13.764;2023-05-10T13:31:31;22.50;56.40
75738;DHT22;64356;45.638;13.764;2023-05-10T13:33:56;22.50;57.00
75738;DHT22;64356;45.638;13.764;2023-05-10T13:36:22;22.50;56.90
75738;DHT22;64356;45.638;13.764;2023-05-10T13:38:48;22.60;56.90
75738;DHT22;64356;45.638;13.764;2023-05-10T13:41:14;22.50;56.80
75738;DHT22;64356;45.638;13.764;2023-05-10T13:43:39;22.50;56.70
75738;DHT22;64356;45.638;13.764;2023-05-10T13:46:05;22.50;56.70
75738;DHT22;64356;45.638;13.764;2023-05-10T13:48:31;22.50;56.70
75738;DHT22;64356;45.638;13.764;2023-05-10T13:50:56;22.50;56.80
75738;DHT22;64356;45.638;13.764;2023-05-10T13:53:22;22.40;56.70
75738;DHT22;64356;45.638;13.764;2023-05-10T13:55:48;22.40;56.60
75738;DHT22;64356;45.638;13.764;2023-05-10T13:58:14;22.40;56.50
75738;DHT22;64356;45.638;13.764;2023-05-10T14:00:40;22.40;56.80
75738;DHT22;64356;45.638;13.764;2023-05-10T14:03:06;22.50;56.70
75738;DHT22;64356;45.638;13.764;2023-05-10T14:05:32;22.50;56.40
75738;DHT22;64356;45.638;13.764;2023-05-10T14:07:58;22.50;56.40
75738;DHT22;64356;45.638;13.764;2023-05-10T14:10:24;22.50;56.20
75738;DHT22;64356;45.638;13.764;2023-05-10T14:12:50;22.60;55.90
75738;DHT22;64356;45.638;13.764;2023-05-10T14:15:16;22.60;55.40
75738;DHT22;64356;45.638;13.764;2023-05-10T14:17:41;22.50;55.30
75738;DHT22;64356;45.638;13.764;2023-05-10T14:20:07;22.50;55.30
75738;DHT22;64356;45.638;13.764;2023-05-10T14:22:34;22.50;55.30
75738;DHT22;64356;45.638;13.764;2023-05-10T14:25:00;22.40;55.20
75738;DHT22;64356;45.638;13.764;2023-05-10T14:27:26;22.40;55.30
75738;DHT22;64356;45.638;13.764;2023-05-10T14:29:51;22.40;55.30
75738;DHT22;64356;45.638;13.764;2023-05-10T14:32:18;22.30;55.20
75738;DHT22;64356;45.638;13.764;2023-05-10T14:34:44;22.30;55.20
75738;DHT22;64356;45.638;13.764;2023-05-10T14:37:10;22.30;55.30
75738;DHT22;64356;45.638;13.764;2023-05-10T14:39:37;22.30;55.30
75738;DHT22;64356;45.638;13.764;2023-05-10T14:42:03;22.30;55.20
75738;DHT22;64356;45.638;13.764;2023-05-10T14:44:29;22.20;55.20
75738;DHT22;64356;45.638;13.764;2023-05-10T14:46:55;22.30;55.40
75738;DHT22;64356;45.638;13.764;2023-05-10T14:49:22;22.20;55.40
75738;DHT22;64356;45.638;13.764;2023-05-10T14:51:50;22.20;55.40
75738;DHT22;64356;45.638;13.764;2023-05-10T14:54:15;22.20;55.40
75738;DHT22;64356;45.638;13.764;2023-05-10T14:56:41;22.20;55.30
75738;DHT22;64356;45.638;13.764;2023-05-10T14:59:07;22.20;55.30
75738;DHT22;64356;45.638;13.764;2023-05-10T15:01:33;22.20;55.30
75738;DHT22;64356;45.638;13.764;2023-05-10T15:04:05;22.30;55.30
75738;DHT22;64356;45.638;13.764;2023-05-10T15:06:32;22.30;55.30
75738;DHT22;64356;45.638;13.764;2023-05-10T15:08:59;22.30;55.30
75738;DHT22;64356;45.638;13.764;2023-05-10T15:11:25;22.30;55.30
75738;DHT22;64356;45.638;13.764;2023-05-10T15:13:51;22.30;55.30
75738;DHT22;64356;45.638;13.764;2023-05-10T15:16:17;22.30;55.30
75738;DHT22;64356;45.638;13.764;2023-05-10T15:18:42;22.30;55.30
75738;DHT22;64356;45.638;13.764;2023-05-10T15:21:08;22.40;55.30
75738;DHT22;64356;45.638;13.764;2023-05-10T15:23:34;22.30;55.40
75738;DHT22;64356;45.638;13.764;2023-05-10T15:26:00;22.30;55.50
75738;DHT22;64356;45.638;13.764;2023-05-10T15:28:26;22.30;55.50
75738;DHT22;64356;45.638;13.764;2023-05-10T15:30:51;22.30;55.60
75738;DHT22;64356;45.638;13.764;2023-05-10T15:33:17;22.30;55.70
75738;DHT22;64356;45.638;13.764;2023-05-10T15:35:43;22.30;55.70
75738;DHT22;64356;45.638;13.764;2023-05-10T15:38:09;22.30;55.90
75738;DHT22;64356;45.638;13.764;2023-05-10T15:40:35;22.30;55.80
75738;DHT22;64356;45.638;13.764;2023-05-10T15:43:01;22.40;56.30
75738;DHT22;64356;45.638;13.764;2023-05-10T15:45:27;22.30;55.90
75738;DHT22;64356;45.638;13.764;2023-05-10T15:47:52;22.40;55.90
75738;DHT22;64356;45.638;13.764;2023-05-10T15:50:18;22.40;55.90
75738;DHT22;64356;45.638;13.764;2023-05-10T15:52:44;22.40;55.90
75738;DHT22;64356;45.638;13.764;2023-05-10T15:55:09;22.40;55.60